createdAt,value
2024-04-30T00:02:19.207Z,13.58
2024-04-30T00:04:47.281Z,13.55
2024-04-30T00:07:15.327Z,13.54
2024-04-30T00:09:43.397Z,13.54
2024-04-30T00:12:11.218Z,13.52
2024-04-30T00:14:39.172Z,13.49
2024-04-30T00:17:07.052Z,13.46
2024-04-30T00:19:34.990Z,13.45
2024-04-30T00:22:03.053Z,13.44
2024-04-30T00:24:30.996Z,13.42
2024-04-30T00:26:59.060Z,13.40
2024-04-30T00:29:27.333Z,13.37
2024-04-30T00:31:55.182Z,13.34
2024-04-30T00:34:23.031Z,13.32
2024-04-30T00:36:50.889Z,13.28
2024-04-30T00:39:18.702Z,13.27
2024-04-30T00:41:46.676Z,13.27
2024-04-30T00:44:14.728Z,13.27
2024-04-30T00:46:43.109Z,13.27
2024-04-30T00:49:11.275Z,13.25
2024-04-30T00:51:39.522Z,13.23
2024-04-30T00:54:07.707Z,13.23
2024-04-30T00:56:36.147Z,13.21
2024-04-30T00:59:04.220Z,13.20
2024-04-30T01:01:32.793Z,13.19
2024-04-30T01:04:00.788Z,13.18
2024-04-30T01:06:28.955Z,13.18
2024-04-30T01:08:57.098Z,13.16
2024-04-30T01:11:25.309Z,13.14
2024-04-30T01:13:53.470Z,13.12
2024-04-30T01:16:21.832Z,13.10
2024-04-30T01:18:50.121Z,13.07
2024-04-30T01:21:18.100Z,13.06
2024-04-30T01:23:46.072Z,13.03
2024-04-30T01:26:14.134Z,13.00
2024-04-30T01:28:42.329Z,12.96
2024-04-30T01:31:10.315Z,12.95
2024-04-30T01:33:38.456Z,12.94
2024-04-30T01:36:06.525Z,12.92
2024-04-30T01:38:34.599Z,12.91
2024-04-30T01:41:02.608Z,12.89
2024-04-30T01:43:30.717Z,12.89
2024-04-30T01:45:59.593Z,12.89
2024-04-30T01:48:27.888Z,12.86
2024-04-30T01:50:58.330Z,12.85
2024-04-30T01:53:26.217Z,12.84
2024-04-30T01:55:54.122Z,12.82
2024-04-30T01:58:22.208Z,12.81
2024-04-30T02:00:50.096Z,12.77
2024-04-30T02:03:18.281Z,12.77
2024-04-30T02:05:46.969Z,12.79
2024-04-30T02:08:14.796Z,12.80
2024-04-30T02:10:42.785Z,12.81
2024-04-30T02:13:10.752Z,12.82
2024-04-30T02:15:38.833Z,12.86
2024-04-30T02:18:07.166Z,12.91
2024-04-30T02:20:55.030Z,12.95
2024-04-30T02:23:23.035Z,13.01
2024-04-30T02:25:50.886Z,13.09
2024-04-30T02:28:18.847Z,13.17
2024-04-30T02:31:05.420Z,13.25
2024-04-30T02:33:51.930Z,13.33
2024-04-30T02:36:19.862Z,13.45
2024-04-30T02:38:47.702Z,13.58
2024-04-30T02:41:15.896Z,13.73
2024-04-30T02:43:44.051Z,13.87
2024-04-30T02:46:12.233Z,13.98
2024-04-30T02:48:40.510Z,14.09
2024-04-30T02:51:08.616Z,14.22
2024-04-30T02:53:36.746Z,14.32
2024-04-30T02:56:05.238Z,14.40
2024-04-30T02:58:33.377Z,14.45
2024-04-30T03:01:01.525Z,14.52
2024-04-30T03:03:31.313Z,14.59
2024-04-30T03:05:59.509Z,14.63
2024-04-30T03:08:27.774Z,14.70
2024-04-30T03:10:56.049Z,14.71
2024-04-30T03:13:24.314Z,14.67
2024-04-30T03:15:52.454Z,14.60
2024-04-30T03:18:20.457Z,14.55
2024-04-30T03:20:49.307Z,14.52
2024-04-30T03:23:17.281Z,14.54
2024-04-30T03:25:45.550Z,14.61
2024-04-30T03:28:13.920Z,14.75
2024-04-30T03:30:42.004Z,14.94
2024-04-30T03:33:10.156Z,15.10
2024-04-30T03:35:38.564Z,15.27
2024-04-30T03:38:06.543Z,15.43
2024-04-30T03:40:34.691Z,15.53
2024-04-30T03:43:02.750Z,15.62
2024-04-30T03:45:30.741Z,15.73
2024-04-30T03:47:58.838Z,15.88
2024-04-30T03:50:26.917Z,16.00
2024-04-30T03:52:54.963Z,16.12
2024-04-30T03:55:23.293Z,16.19
2024-04-30T03:57:51.377Z,16.28
2024-04-30T04:00:19.633Z,16.38
2024-04-30T04:02:47.869Z,16.50
2024-04-30T04:05:16.096Z,16.58
2024-04-30T04:07:44.342Z,16.66
2024-04-30T04:10:12.318Z,16.78
2024-04-30T04:12:58.881Z,16.85
2024-04-30T04:15:26.846Z,16.93
2024-04-30T04:17:54.892Z,17.02
2024-04-30T04:20:22.949Z,17.13
2024-04-30T04:22:51.063Z,17.20
2024-04-30T04:25:19.102Z,17.33
2024-04-30T04:27:47.338Z,17.43
2024-04-30T04:30:15.505Z,17.51
2024-04-30T04:32:43.767Z,17.63
2024-04-30T04:35:11.878Z,17.77
2024-04-30T04:37:40.949Z,17.91
2024-04-30T04:40:09.364Z,18.03
2024-04-30T04:42:37.378Z,18.14
2024-04-30T04:45:05.750Z,18.26
2024-04-30T04:47:33.902Z,18.38
2024-04-30T04:50:02.110Z,18.49
2024-04-30T04:52:30.630Z,18.59
2024-04-30T04:55:01.336Z,18.72
2024-04-30T04:57:31.328Z,18.85
2024-04-30T04:59:59.415Z,18.95
2024-04-30T05:02:27.462Z,18.98
2024-04-30T05:04:55.663Z,19.13
2024-04-30T05:07:23.730Z,19.36
2024-04-30T05:09:51.787Z,19.65
2024-04-30T05:12:19.826Z,19.88
2024-04-30T05:14:49.139Z,19.99
2024-04-30T05:17:18.417Z,20.03
2024-04-30T05:19:46.576Z,19.96
2024-04-30T05:22:15.084Z,20.03
2024-04-30T05:24:43.161Z,20.14
2024-04-30T05:27:11.276Z,20.23
2024-04-30T05:29:39.444Z,20.43
2024-04-30T05:32:07.514Z,20.63
2024-04-30T05:34:36.085Z,20.77
2024-04-30T05:37:04.170Z,20.88
2024-04-30T05:39:32.362Z,20.89
2024-04-30T05:42:00.508Z,20.84
2024-04-30T05:44:28.786Z,20.85
2024-04-30T05:46:56.869Z,20.82
2024-04-30T05:49:24.856Z,20.91
2024-04-30T05:51:53.023Z,21.09
2024-04-30T05:54:21.167Z,21.20
2024-04-30T05:56:49.544Z,21.28
2024-04-30T05:59:17.730Z,21.37
2024-04-30T06:01:45.858Z,21.48
2024-04-30T06:04:13.937Z,21.63
2024-04-30T06:06:41.950Z,21.77
2024-04-30T06:09:10.315Z,21.92
2024-04-30T06:11:38.410Z,22.20
2024-04-30T06:14:06.565Z,22.47
2024-04-30T06:16:35.208Z,22.74
2024-04-30T06:19:03.443Z,22.93
2024-04-30T06:21:37.503Z,23.03
2024-04-30T06:24:07.443Z,23.16
2024-04-30T06:26:35.593Z,23.22
2024-04-30T06:29:03.601Z,23.39
2024-04-30T06:31:31.676Z,23.63
2024-04-30T06:34:00.766Z,24.01
2024-04-30T06:36:29.035Z,24.45
2024-04-30T06:38:57.306Z,24.85
2024-04-30T06:41:26.407Z,25.29
2024-04-30T06:43:54.366Z,25.74
2024-04-30T06:46:22.492Z,25.84
2024-04-30T06:48:50.542Z,25.81
2024-04-30T06:51:19.008Z,25.95
2024-04-30T06:53:46.962Z,26.21
2024-04-30T06:56:15.040Z,26.69
2024-04-30T06:58:43.104Z,27.02
2024-04-30T07:01:11.103Z,27.34
2024-04-30T07:03:39.032Z,27.69
2024-04-30T07:06:07.298Z,28.10
2024-04-30T07:08:35.271Z,28.46
2024-04-30T07:11:03.697Z,28.83
2024-04-30T07:13:31.812Z,29.15
2024-04-30T07:15:59.767Z,29.48
2024-04-30T07:18:27.808Z,29.70
2024-04-30T07:20:55.948Z,29.85
2024-04-30T07:23:23.932Z,30.11
2024-04-30T07:25:52.192Z,30.30
2024-04-30T07:28:20.227Z,30.48
2024-04-30T07:30:48.132Z,30.65
2024-04-30T07:33:16.039Z,30.91
2024-04-30T07:35:44.040Z,31.36
2024-04-30T07:38:11.879Z,31.83
2024-04-30T07:40:40.097Z,32.19
2024-04-30T07:43:08.167Z,31.92
2024-04-30T07:45:36.052Z,31.16
2024-04-30T07:48:04.327Z,30.50
2024-04-30T07:50:32.556Z,29.92
2024-04-30T07:53:00.630Z,29.67
2024-04-30T07:55:29.673Z,29.65
2024-04-30T07:57:57.627Z,30.01
2024-04-30T08:00:25.447Z,30.69
2024-04-30T08:02:53.673Z,31.64
2024-04-30T08:05:21.528Z,32.26
2024-04-30T08:07:49.522Z,32.80
2024-04-30T08:10:17.336Z,33.46
2024-04-30T08:12:45.823Z,34.11
2024-04-30T08:15:13.751Z,34.20
2024-04-30T08:17:41.928Z,34.33
2024-04-30T08:20:10.364Z,34.21
2024-04-30T08:22:38.565Z,33.88
2024-04-30T08:25:06.572Z,34.03
2024-04-30T08:27:34.507Z,34.52
2024-04-30T08:30:02.527Z,35.04
2024-04-30T08:32:32.069Z,35.69
2024-04-30T08:34:59.875Z,36.31
2024-04-30T08:37:29.342Z,36.66
2024-04-30T08:39:58.576Z,36.94
2024-04-30T08:42:28.715Z,37.22
2024-04-30T08:45:01.010Z,37.59
2024-04-30T08:47:31.338Z,37.37
2024-04-30T08:50:09.441Z,37.22
2024-04-30T08:52:43.834Z,37.25
2024-04-30T08:55:12.954Z,37.21
2024-04-30T08:57:41.242Z,36.86
2024-04-30T09:00:09.407Z,36.45
2024-04-30T09:02:39.128Z,36.20
2024-04-30T09:05:07.422Z,36.15
2024-04-30T09:07:35.602Z,35.97
2024-04-30T09:10:03.968Z,35.93
2024-04-30T09:12:33.205Z,35.65
2024-04-30T09:15:01.213Z,35.60
2024-04-30T09:17:31.058Z,36.20
2024-04-30T09:20:09.258Z,36.95
2024-04-30T09:22:50.868Z,37.10
2024-04-30T09:25:20.179Z,37.35
2024-04-30T09:27:48.137Z,37.67
2024-04-30T09:30:19.924Z,38.12
2024-04-30T09:32:48.147Z,38.59
2024-04-30T09:35:23.090Z,39.05
2024-04-30T09:37:58.343Z,39.52
2024-04-30T09:40:29.214Z,39.22
2024-04-30T09:42:57.403Z,38.52
2024-04-30T09:45:25.200Z,37.88
2024-04-30T09:47:54.980Z,37.52
2024-04-30T09:50:23.186Z,37.24
2024-04-30T09:52:51.981Z,37.46
2024-04-30T09:55:20.920Z,37.90
2024-04-30T09:57:49.932Z,38.36
2024-04-30T10:00:24.127Z,38.69
2024-04-30T10:02:55.730Z,39.44
2024-04-30T10:05:26.385Z,40.24
2024-04-30T10:07:55.085Z,40.84
2024-04-30T10:10:27.561Z,41.41
2024-04-30T10:13:07.111Z,41.73
2024-04-30T10:15:35.330Z,41.96
2024-04-30T10:18:03.211Z,42.51
2024-04-30T10:20:32.697Z,43.07
2024-04-30T10:23:06.926Z,43.42
2024-04-30T10:25:35.061Z,43.46
2024-04-30T10:28:10.213Z,43.64
2024-04-30T10:30:38.153Z,43.69
2024-04-30T10:33:06.421Z,43.80
2024-04-30T10:35:41.421Z,44.15
2024-04-30T10:38:09.457Z,44.40
2024-04-30T10:40:37.925Z,43.67
2024-04-30T10:43:06.108Z,42.10
2024-04-30T10:45:34.090Z,41.66
2024-04-30T10:48:02.858Z,41.93
2024-04-30T10:50:30.887Z,42.67
2024-04-30T10:53:00.978Z,43.23
2024-04-30T10:55:29.205Z,43.93
2024-04-30T10:57:57.185Z,44.62
2024-04-30T11:00:25.995Z,44.42
2024-04-30T11:02:58.285Z,44.30
2024-04-30T11:05:28.454Z,44.23
2024-04-30T11:08:03.362Z,44.02
2024-04-30T11:10:37.289Z,44.21
2024-04-30T11:13:05.582Z,44.51
2024-04-30T11:15:33.606Z,44.48
2024-04-30T11:18:01.795Z,44.57
2024-04-30T11:20:30.548Z,44.75
2024-04-30T11:22:58.911Z,44.80
2024-04-30T11:25:27.299Z,45.02
2024-04-30T11:27:55.206Z,45.15
2024-04-30T11:30:23.203Z,45.28
2024-04-30T11:32:51.368Z,44.82
2024-04-30T11:35:19.304Z,44.58
2024-04-30T11:37:47.305Z,44.46
2024-04-30T11:40:15.482Z,44.45
2024-04-30T11:42:45.102Z,44.41
2024-04-30T11:45:15.473Z,44.59
2024-04-30T11:47:43.561Z,44.82
2024-04-30T11:50:12.169Z,44.97
2024-04-30T11:52:41.207Z,44.92
2024-04-30T11:55:10.967Z,45.04
2024-04-30T11:57:38.946Z,45.32
2024-04-30T12:00:07.471Z,45.55
2024-04-30T12:02:36.580Z,45.65
2024-04-30T12:05:04.908Z,45.70
2024-04-30T12:07:33.355Z,45.37
2024-04-30T12:10:05.067Z,44.93
2024-04-30T12:12:33.356Z,44.64
2024-04-30T12:15:01.119Z,44.49
2024-04-30T12:17:29.543Z,44.17
2024-04-30T12:19:57.723Z,43.77
2024-04-30T12:22:25.933Z,43.49
2024-04-30T12:24:53.867Z,43.39
2024-04-30T12:27:21.875Z,43.22
2024-04-30T12:29:49.686Z,42.84
2024-04-30T12:32:18.238Z,42.58
2024-04-30T12:34:46.065Z,42.36
2024-04-30T12:37:13.938Z,42.03
2024-04-30T12:39:41.806Z,41.88
2024-04-30T12:42:09.740Z,41.88
2024-04-30T12:44:37.525Z,41.70
2024-04-30T12:47:06.668Z,40.71
2024-04-30T12:49:34.491Z,38.68
2024-04-30T12:52:02.439Z,36.46
2024-04-30T12:54:31.714Z,35.47
2024-04-30T12:57:00.707Z,35.05
2024-04-30T12:59:28.790Z,34.34
2024-04-30T13:01:56.701Z,33.24
2024-04-30T13:04:24.935Z,32.03
2024-04-30T13:06:52.714Z,30.91
2024-04-30T13:09:20.563Z,29.98
2024-04-30T13:11:48.307Z,29.26
2024-04-30T13:14:16.236Z,28.83
2024-04-30T13:16:45.046Z,28.42
2024-04-30T13:19:13.171Z,28.14
2024-04-30T13:21:41.030Z,27.83
2024-04-30T13:24:14.845Z,27.51
2024-04-30T13:26:42.698Z,27.15
2024-04-30T13:29:10.680Z,26.88
2024-04-30T13:31:43.648Z,26.55
2024-04-30T13:34:11.519Z,26.23
2024-04-30T13:36:39.566Z,25.99
2024-04-30T13:39:07.879Z,25.80
2024-04-30T13:41:36.267Z,25.64
2024-04-30T13:44:04.541Z,25.51
2024-04-30T13:46:32.367Z,25.37
2024-04-30T13:49:00.320Z,25.25
2024-04-30T13:51:28.114Z,25.08
2024-04-30T13:53:56.120Z,24.97
2024-04-30T13:56:23.876Z,24.88
2024-04-30T13:58:51.764Z,24.74
2024-04-30T14:01:19.619Z,24.64
2024-04-30T14:03:47.634Z,24.53
2024-04-30T14:06:21.648Z,24.32
2024-04-30T14:08:49.472Z,24.16
2024-04-30T14:11:17.476Z,24.03
2024-04-30T14:13:45.530Z,23.96
2024-04-30T14:16:13.397Z,23.80
2024-04-30T14:18:41.346Z,23.78
2024-04-30T14:21:11.678Z,23.77
2024-04-30T14:23:39.630Z,23.69
2024-04-30T14:26:08.541Z,23.68
2024-04-30T14:28:38.385Z,23.64
2024-04-30T14:31:07.467Z,23.59
2024-04-30T14:33:35.452Z,23.51
2024-04-30T14:36:21.881Z,23.45
2024-04-30T14:38:49.767Z,23.40
2024-04-30T14:41:18.255Z,23.29
2024-04-30T14:43:46.070Z,23.22
2024-04-30T14:46:13.943Z,23.18
2024-04-30T14:48:43.480Z,23.14
2024-04-30T14:51:11.389Z,23.11
2024-04-30T14:53:39.242Z,23.07
2024-04-30T14:56:07.256Z,23.09
2024-04-30T14:58:35.588Z,23.05
2024-04-30T15:01:03.530Z,23.06
2024-04-30T15:03:35.075Z,23.04
2024-04-30T15:06:02.993Z,23.01
2024-04-30T15:08:30.791Z,22.96
2024-04-30T15:10:58.698Z,22.93
2024-04-30T15:13:26.668Z,22.86
2024-04-30T15:15:54.470Z,22.81
2024-04-30T15:18:22.459Z,22.72
2024-04-30T15:23:17.759Z,22.64
2024-04-30T15:25:45.562Z,22.59
2024-04-30T15:28:13.459Z,22.55
2024-04-30T15:30:41.297Z,22.50
2024-04-30T15:33:09.975Z,22.45
2024-04-30T15:35:37.891Z,22.40
2024-04-30T15:38:05.873Z,22.35
2024-04-30T15:40:33.805Z,22.31
2024-04-30T15:43:01.734Z,22.26
2024-04-30T15:45:29.595Z,22.21
2024-04-30T15:47:57.590Z,22.14
2024-04-30T15:50:25.680Z,22.08
2024-04-30T15:52:53.635Z,22.04
2024-04-30T15:55:22.415Z,22.02
2024-04-30T15:57:50.323Z,22.01
2024-04-30T16:00:18.180Z,21.98
2024-04-30T16:02:46.619Z,21.94
2024-04-30T16:05:14.610Z,21.89
2024-04-30T16:07:42.635Z,21.84
2024-04-30T16:10:10.636Z,21.80
2024-04-30T16:12:38.494Z,21.74
2024-04-30T16:15:06.458Z,21.71
2024-04-30T16:17:34.412Z,21.68
2024-04-30T16:20:03.552Z,21.64
2024-04-30T16:22:32.845Z,21.62
2024-04-30T16:25:00.634Z,21.58
2024-04-30T16:27:28.412Z,21.55
2024-04-30T16:29:56.248Z,21.53
2024-04-30T16:32:24.150Z,21.52
2024-04-30T16:34:51.919Z,21.53
2024-04-30T16:37:19.918Z,21.53
2024-04-30T16:39:50.277Z,21.52
2024-04-30T16:42:18.303Z,21.50
2024-04-30T16:44:48.744Z,21.48
2024-04-30T16:47:20.964Z,21.41
2024-04-30T16:49:48.763Z,21.37
2024-04-30T16:52:16.617Z,21.33
2024-04-30T16:54:44.473Z,21.28
2024-04-30T16:57:12.406Z,21.23
2024-04-30T16:59:40.151Z,21.18
2024-04-30T17:02:11.516Z,21.15
2024-04-30T17:04:40.343Z,21.10
2024-04-30T17:07:08.236Z,21.04
2024-04-30T17:09:36.307Z,21.00
2024-04-30T17:12:04.190Z,20.95
2024-04-30T17:14:32.124Z,20.94
2024-04-30T17:16:59.944Z,20.90
2024-04-30T17:19:27.895Z,20.83
2024-04-30T17:21:55.768Z,20.77
2024-04-30T17:24:23.812Z,20.70
2024-04-30T17:26:51.737Z,20.64
2024-04-30T17:29:19.943Z,20.58
2024-04-30T17:31:47.772Z,20.55
2024-04-30T17:34:16.459Z,20.51
2024-04-30T17:36:46.981Z,20.48
2024-04-30T17:39:17.339Z,20.44
2024-04-30T17:41:45.627Z,20.41
2024-04-30T17:44:13.604Z,20.37
2024-04-30T17:46:42.316Z,20.31
2024-04-30T17:49:10.767Z,20.26
2024-04-30T17:51:42.786Z,20.25
2024-04-30T17:54:10.955Z,20.21
2024-04-30T17:56:39.291Z,20.21
2024-04-30T17:59:07.689Z,20.18
2024-04-30T18:01:35.601Z,20.17
2024-04-30T18:04:03.609Z,20.13
2024-04-30T18:06:33.419Z,20.10
2024-04-30T18:09:01.397Z,20.07
2024-04-30T18:11:29.399Z,20.04
2024-04-30T18:13:57.605Z,20.03
2024-04-30T18:16:26.156Z,20.01
2024-04-30T18:18:54.228Z,19.99
2024-04-30T18:21:24.681Z,19.93
2024-04-30T18:23:52.789Z,19.88
2024-04-30T18:26:20.587Z,19.82
2024-04-30T18:29:00.021Z,19.79
2024-04-30T18:31:28.749Z,19.74
2024-04-30T18:33:56.854Z,19.70
2024-04-30T18:36:26.513Z,19.66
2024-04-30T18:38:55.289Z,19.62
2024-04-30T18:41:29.738Z,19.58
2024-04-30T18:43:59.910Z,19.55
2024-04-30T18:46:28.293Z,19.53
2024-04-30T18:48:56.770Z,19.50
2024-04-30T18:51:26.585Z,19.48
2024-04-30T18:53:54.392Z,19.47
2024-04-30T18:56:22.652Z,19.46
2024-04-30T18:58:50.606Z,19.42
2024-04-30T19:01:18.826Z,19.39
2024-04-30T19:03:49.492Z,19.37
2024-04-30T19:06:20.014Z,19.34
2024-04-30T19:08:47.986Z,19.34
2024-04-30T19:11:16.280Z,19.36
2024-04-30T19:13:44.999Z,19.37
2024-04-30T19:16:13.493Z,19.40
2024-04-30T19:18:41.472Z,19.45
2024-04-30T19:21:09.454Z,19.49
2024-04-30T19:23:37.300Z,19.52
2024-04-30T19:26:05.326Z,19.51
2024-04-30T19:28:33.218Z,19.47
2024-04-30T19:31:01.308Z,19.43
2024-04-30T19:33:29.378Z,19.42
2024-04-30T19:35:57.622Z,19.37
2024-04-30T19:38:25.831Z,19.35
2024-04-30T19:40:53.967Z,19.32
2024-04-30T19:43:21.784Z,19.30
2024-04-30T19:45:50.790Z,19.33
2024-04-30T19:48:20.684Z,19.33
2024-04-30T19:50:51.379Z,19.32
2024-04-30T19:53:19.322Z,19.31
2024-04-30T19:55:47.203Z,19.28
2024-04-30T19:58:15.084Z,19.27
2024-04-30T20:00:43.110Z,19.27
2024-04-30T20:03:11.027Z,19.25
2024-04-30T20:05:43.366Z,19.24
2024-04-30T20:08:11.274Z,19.23
2024-04-30T20:10:39.180Z,19.17
2024-04-30T20:13:07.197Z,19.14
2024-04-30T20:15:35.199Z,19.10
2024-04-30T20:18:03.163Z,19.07
2024-04-30T20:20:31.269Z,19.08
2024-04-30T20:22:59.422Z,19.08
2024-04-30T20:25:27.170Z,19.06
2024-04-30T20:27:55.150Z,19.07
2024-04-30T20:30:23.134Z,19.04
2024-04-30T20:32:50.997Z,19.00
2024-04-30T20:35:18.857Z,18.95
2024-04-30T20:37:46.750Z,18.89
2024-04-30T20:40:14.677Z,18.82
2024-04-30T20:42:42.577Z,18.80
2024-04-30T20:45:10.353Z,18.80
2024-04-30T20:47:38.335Z,18.79
2024-04-30T20:50:06.440Z,18.80
2024-04-30T20:52:34.568Z,18.81
2024-04-30T20:55:02.558Z,18.78
2024-04-30T20:57:31.563Z,18.77
2024-04-30T20:59:59.580Z,18.75
2024-04-30T21:02:27.610Z,18.74
2024-04-30T21:04:55.435Z,18.71
2024-04-30T21:07:23.256Z,18.67
2024-04-30T21:09:51.066Z,18.62
2024-04-30T21:12:19.500Z,18.58
2024-04-30T21:14:47.529Z,18.53
2024-04-30T21:17:15.516Z,18.48
2024-04-30T21:19:44.107Z,18.41
2024-04-30T21:22:12.157Z,18.35
2024-04-30T21:24:40.230Z,18.28
2024-04-30T21:27:08.221Z,18.23
2024-04-30T21:29:37.641Z,18.18
2024-04-30T21:32:08.997Z,18.13
2024-04-30T21:34:38.158Z,18.11
2024-04-30T21:37:06.434Z,18.09
2024-04-30T21:39:34.455Z,18.10
2024-04-30T21:42:02.286Z,18.11
2024-04-30T21:44:30.515Z,18.09
2024-04-30T21:46:58.400Z,18.04
2024-04-30T21:49:26.378Z,18.01
2024-04-30T21:51:54.353Z,17.97
2024-04-30T21:54:22.412Z,17.93
2024-04-30T21:56:50.421Z,17.91
2024-04-30T21:59:18.375Z,17.90
2024-04-30T22:01:47.693Z,17.90
2024-04-30T22:04:15.706Z,17.92
2024-04-30T22:06:43.622Z,17.93
2024-04-30T22:09:11.751Z,17.94
2024-04-30T22:11:40.990Z,17.95
2024-04-30T22:14:09.079Z,17.95
2024-04-30T22:16:36.872Z,17.96
2024-04-30T22:19:05.153Z,17.97
2024-04-30T22:21:33.386Z,18.00
2024-04-30T22:24:01.505Z,18.03
2024-04-30T22:26:29.320Z,18.06
2024-04-30T22:28:57.181Z,18.09
2024-04-30T22:31:25.215Z,18.06
2024-04-30T22:33:53.150Z,18.02
2024-04-30T22:36:21.153Z,17.98
2024-04-30T22:38:48.936Z,17.95
2024-04-30T22:41:16.966Z,17.90
2024-04-30T22:43:44.691Z,17.86
2024-04-30T22:46:15.701Z,17.81
2024-04-30T22:48:43.802Z,17.75
2024-04-30T22:51:11.758Z,17.69
2024-04-30T22:53:47.464Z,17.63
2024-04-30T22:56:18.757Z,17.56
2024-04-30T22:58:46.560Z,17.48
2024-04-30T23:01:14.698Z,17.44
2024-04-30T23:03:42.679Z,17.42
2024-04-30T23:06:10.562Z,17.37
2024-04-30T23:08:41.344Z,17.34
2024-04-30T23:11:10.251Z,17.31
2024-04-30T23:13:38.314Z,17.30
2024-04-30T23:16:06.506Z,17.28
2024-04-30T23:18:34.524Z,17.26
2024-04-30T23:21:02.565Z,17.26
2024-04-30T23:23:30.827Z,17.22
2024-04-30T23:25:58.697Z,17.18
2024-04-30T23:28:26.494Z,17.13
2024-04-30T23:30:54.447Z,17.10
2024-04-30T23:33:22.300Z,17.08
2024-04-30T23:35:50.322Z,17.07
2024-04-30T23:38:18.170Z,17.05
2024-04-30T23:40:46.058Z,17.02
2024-04-30T23:43:13.947Z,16.99
2024-04-30T23:45:41.901Z,16.95
2024-04-30T23:48:09.854Z,16.91
2024-04-30T23:50:37.663Z,16.88
2024-04-30T23:53:05.893Z,16.85
2024-04-30T23:55:33.668Z,16.83
2024-04-30T23:58:01.543Z,16.82
